createdAt,value
2019-05-02T06:28:04.738Z,15.18
2019-05-02T06:30:33.067Z,17.10
2019-05-02T06:33:04.227Z,14.70
2019-05-02T06:35:35.330Z,14.73
2019-05-02T06:38:06.389Z,14.93
2019-05-02T06:40:39.271Z,15.48
2019-05-02T06:43:11.402Z,14.78
2019-05-02T06:45:42.663Z,14.13
2019-05-02T06:48:17.706Z,13.70
2019-05-02T06:50:46.551Z,15.05
2019-05-02T06:53:17.763Z,14.30
2019-05-02T06:55:48.963Z,15.00
2019-05-02T06:58:20.189Z,14.68
2019-05-02T07:00:58.314Z,15.32
2019-05-02T07:03:24.178Z,14.73
2019-05-02T07:05:58.639Z,14.03
2019-05-02T07:08:28.300Z,15.00
2019-05-02T07:11:01.459Z,15.32
2019-05-02T07:13:36.196Z,14.13
2019-05-02T07:16:10.584Z,15.65
2019-05-02T07:21:23.367Z,31.73
2019-05-02T07:23:53.464Z,32.05
2019-05-02T07:26:25.844Z,46.50
2019-05-02T07:28:57.056Z,41.58
2019-05-02T07:31:28.240Z,35.48
2019-05-02T07:33:59.445Z,25.50
2019-05-02T07:36:31.160Z,16.85
2019-05-02T07:39:06.259Z,26.45
2019-05-02T07:41:37.360Z,21.70
2019-05-02T07:44:08.407Z,30.75
2019-05-02T07:46:51.238Z,26.60
2019-05-02T07:49:12.520Z,22.70
2019-05-02T07:51:43.853Z,22.27
2019-05-02T07:54:19.246Z,19.87
2019-05-02T07:56:48.682Z,17.80
2019-05-02T07:59:23.440Z,27.62
2019-05-02T08:01:52.884Z,27.37
2019-05-02T08:04:24.086Z,25.80
2019-05-02T08:06:55.192Z,28.92
2019-05-02T08:09:26.357Z,29.77
2019-05-02T08:11:57.526Z,29.77
2019-05-02T08:14:29.414Z,24.43
2019-05-02T08:17:05.614Z,14.05
2019-05-02T08:19:37.460Z,13.50
2019-05-02T08:22:13.271Z,12.28
2019-05-02T08:24:40.016Z,13.85
2019-05-02T08:27:15.817Z,12.43
2019-05-02T08:29:47.042Z,13.05
2019-05-02T08:32:18.185Z,14.18
2019-05-02T08:34:51.976Z,14.18
2019-05-02T08:37:23.105Z,14.78
2019-05-02T08:39:54.303Z,14.33
2019-05-02T08:42:27.836Z,14.70
2019-05-02T08:45:01.002Z,28.52
2019-05-02T08:47:32.537Z,14.03
2019-05-02T08:50:07.623Z,38.48
2019-05-02T08:52:42.086Z,32.03
2019-05-02T08:55:11.080Z,25.82
2019-05-02T08:57:43.863Z,16.87
2019-05-02T09:00:15.568Z,18.60
2019-05-02T09:02:47.490Z,21.87
2019-05-02T09:05:18.561Z,27.52
2019-05-02T09:07:49.635Z,25.30
2019-05-02T09:10:20.704Z,30.52
2019-05-02T09:12:52.123Z,24.30
2019-05-02T09:15:23.391Z,47.40
2019-05-02T09:17:56.473Z,34.48
2019-05-02T09:20:27.372Z,27.58
2019-05-02T09:22:58.496Z,16.62
2019-05-02T09:25:29.778Z,25.08
2019-05-02T09:28:01.866Z,21.30
2019-05-02T09:30:34.149Z,18.07
2019-05-02T09:33:06.754Z,26.37
2019-05-02T09:35:38.008Z,18.55
2019-05-02T09:38:09.040Z,19.05
2019-05-02T09:40:40.214Z,12.43
2019-05-02T09:43:12.211Z,19.80
2019-05-02T09:45:44.029Z,13.32
2019-05-02T09:48:17.122Z,12.68
2019-05-02T09:50:48.403Z,11.65
2019-05-02T09:53:21.740Z,12.30
2019-05-02T09:55:57.279Z,12.70
2019-05-02T09:58:26.354Z,22.62
2019-05-02T10:01:14.078Z,12.07
2019-05-02T10:03:45.262Z,17.15
2019-05-02T10:06:18.159Z,14.20
2019-05-02T10:08:49.234Z,27.70
2019-05-02T10:11:22.506Z,30.00
2019-05-02T10:13:55.366Z,34.78
2019-05-02T10:16:27.456Z,30.30
2019-05-02T10:19:00.276Z,25.20
2019-05-02T10:21:31.946Z,24.27
2019-05-02T10:24:03.842Z,26.00
2019-05-02T10:26:35.073Z,28.25
2019-05-02T10:29:06.137Z,23.95
2019-05-02T10:31:37.807Z,24.65
2019-05-02T10:34:16.318Z,26.52
2019-05-02T10:36:45.146Z,25.15
2019-05-02T10:39:15.874Z,24.75
2019-05-02T10:41:47.253Z,33.63
2019-05-02T10:44:18.365Z,48.35
2019-05-02T10:46:54.116Z,41.60
2019-05-02T10:49:31.915Z,29.20
2019-05-02T10:52:02.783Z,35.40
2019-05-02T10:54:37.419Z,31.57
2019-05-02T10:57:06.701Z,29.65
2019-05-02T10:59:38.302Z,24.47
2019-05-02T11:02:26.153Z,23.00
2019-05-02T11:05:07.828Z,15.88
2019-05-02T11:07:42.001Z,14.05
2019-05-02T11:10:13.274Z,13.30
2019-05-02T11:12:48.779Z,12.90
2019-05-02T11:15:26.734Z,10.10
2019-05-02T11:17:57.132Z,10.78
2019-05-02T11:20:28.534Z,17.05
2019-05-02T11:22:59.739Z,14.30
2019-05-02T11:25:31.920Z,12.75
2019-05-02T11:28:07.125Z,13.38
2019-05-02T11:30:37.333Z,11.95
2019-05-02T11:33:08.489Z,13.03
2019-05-02T11:35:41.773Z,12.53
2019-05-02T11:38:29.642Z,11.28
2019-05-02T11:40:45.360Z,11.05
2019-05-02T11:43:16.465Z,11.30
2019-05-02T11:45:47.707Z,10.35
2019-05-02T11:48:19.838Z,10.43
2019-05-02T11:50:52.286Z,19.27
2019-05-02T11:53:28.854Z,16.65
2019-05-02T11:55:58.344Z,29.75
2019-05-02T11:58:29.465Z,27.77
2019-05-02T12:01:04.889Z,23.07
2019-05-02T12:03:36.884Z,20.68
2019-05-02T12:06:12.300Z,20.77
2019-05-02T12:08:45.049Z,20.17
2019-05-02T12:11:17.586Z,18.20
2019-05-02T12:13:47.210Z,17.25
2019-05-02T12:16:19.745Z,17.32
2019-05-02T12:18:50.781Z,32.78
2019-05-02T12:21:22.932Z,15.40
2019-05-02T12:23:54.424Z,12.70
2019-05-02T12:26:25.650Z,12.20
2019-05-02T12:28:56.767Z,12.88
2019-05-02T12:31:32.140Z,11.57
2019-05-02T12:34:04.334Z,11.68
2019-05-02T12:36:35.572Z,10.90
2019-05-02T12:39:06.957Z,11.50
2019-05-02T12:42:03.145Z,10.88
2019-05-02T12:44:34.599Z,9.70
2019-05-02T12:47:05.938Z,9.55
2019-05-02T12:49:37.146Z,10.08
2019-05-02T12:52:08.305Z,9.75
2019-05-02T12:54:39.420Z,12.00
2019-05-02T12:57:12.547Z,11.68
2019-05-02T12:59:43.799Z,11.60
2019-05-02T13:02:19.263Z,10.32
2019-05-02T13:04:50.377Z,10.78
2019-05-02T13:07:23.238Z,10.75
2019-05-02T13:09:55.614Z,10.28
2019-05-02T13:12:32.288Z,11.43
2019-05-02T13:15:04.649Z,12.47
2019-05-02T13:17:47.019Z,11.60
2019-05-02T13:20:12.298Z,11.28
2019-05-02T13:22:44.935Z,11.08
2019-05-02T13:25:17.611Z,9.90
2019-05-02T13:27:48.819Z,9.90
2019-05-02T13:30:24.463Z,9.68
2019-05-02T13:32:57.940Z,10.72
2019-05-02T13:35:42.170Z,9.75
2019-05-02T13:38:14.947Z,10.78
2019-05-02T13:40:46.181Z,9.88
2019-05-02T13:43:17.497Z,10.25
2019-05-02T13:45:50.254Z,10.80
2019-05-02T13:48:21.828Z,11.08
2019-05-02T13:50:53.096Z,10.18
2019-05-02T13:53:24.326Z,10.82
2019-05-02T13:55:57.831Z,10.35
2019-05-02T13:58:30.603Z,10.13
2019-05-02T14:01:03.471Z,9.90
2019-05-02T14:03:35.656Z,9.50
2019-05-02T14:06:06.769Z,9.23
2019-05-02T14:08:43.037Z,9.33
2019-05-02T14:11:32.168Z,9.55
2019-05-02T14:14:03.475Z,9.33
2019-05-02T14:16:34.592Z,10.75
2019-05-02T14:19:05.838Z,9.98
2019-05-02T14:21:36.910Z,12.98
2019-05-02T14:24:08.065Z,25.02
2019-05-02T14:26:39.199Z,29.48
2019-05-02T14:29:12.649Z,15.70
2019-05-02T14:31:43.334Z,15.13
2019-05-02T14:34:27.876Z,12.80
2019-05-02T14:36:59.555Z,9.55
2019-05-02T14:39:32.524Z,9.78
2019-05-02T14:42:03.980Z,9.40
2019-05-02T14:45:01.269Z,9.35
2019-05-02T14:47:09.962Z,9.18
2019-05-02T14:49:42.929Z,8.93
2019-05-02T14:52:14.363Z,9.58
2019-05-02T14:54:47.913Z,9.75
2019-05-02T14:57:25.507Z,10.30
2019-05-02T14:59:59.066Z,10.50
2019-05-02T15:02:32.102Z,10.82
2019-05-02T15:05:02.554Z,11.93
2019-05-02T15:07:33.699Z,11.00
2019-05-02T15:10:06.716Z,9.88
2019-05-02T15:12:38.988Z,10.98
2019-05-02T15:15:12.297Z,10.65
2019-05-02T15:17:43.219Z,9.80
2019-05-02T15:20:14.376Z,11.10
2019-05-02T15:22:45.563Z,10.95
2019-05-02T15:25:17.942Z,10.45
2019-05-02T15:27:58.555Z,11.18
2019-05-02T15:30:24.122Z,9.43
2019-05-02T15:32:56.960Z,10.45
2019-05-02T15:35:38.633Z,9.88
2019-05-02T15:38:09.741Z,9.58
2019-05-02T15:40:49.686Z,9.40
2019-05-02T15:43:14.764Z,9.35
2019-05-02T15:45:46.044Z,9.68
2019-05-02T15:48:22.814Z,9.80
2019-05-02T15:50:53.006Z,8.93
2019-05-02T15:53:32.453Z,9.43
2019-05-02T15:56:03.848Z,9.78
2019-05-02T15:58:35.028Z,10.03
2019-05-02T16:01:12.012Z,9.85
2019-05-02T16:03:47.777Z,9.68
2019-05-02T16:06:24.307Z,8.00
2019-05-02T16:08:52.071Z,7.50
2019-05-02T16:11:23.430Z,8.60
2019-05-02T16:13:55.999Z,8.03
2019-05-02T16:16:27.614Z,8.33
2019-05-02T16:18:58.668Z,6.95
2019-05-02T16:21:34.514Z,6.72
2019-05-02T16:24:22.871Z,7.20
2019-05-02T16:26:56.957Z,7.75
2019-05-02T16:29:28.815Z,7.60
2019-05-02T16:32:14.016Z,7.22
2019-05-02T16:34:54.757Z,6.50
2019-05-02T16:37:26.403Z,6.08
2019-05-02T16:39:57.515Z,6.47
2019-05-02T16:42:28.733Z,7.15
2019-05-02T16:45:02.615Z,6.50
2019-05-02T16:47:34.268Z,6.58
2019-05-02T16:50:09.537Z,6.60
2019-05-02T16:52:43.773Z,6.80
2019-05-02T16:55:21.082Z,6.72
2019-05-02T16:57:46.819Z,7.08
2019-05-02T17:00:19.578Z,7.53
2019-05-02T17:02:50.703Z,7.05
2019-05-02T17:05:22.121Z,7.08
2019-05-02T17:07:55.077Z,7.75
2019-05-02T17:10:47.223Z,9.10
2019-05-02T17:13:18.791Z,9.75
2019-05-02T17:15:50.015Z,9.83
2019-05-02T17:18:22.823Z,9.13
2019-05-02T17:20:56.845Z,9.03
2019-05-02T17:23:26.898Z,8.73
2019-05-02T17:25:58.990Z,8.43
2019-05-02T17:28:31.738Z,8.55
2019-05-02T17:31:03.088Z,9.90
2019-05-02T17:33:34.225Z,10.08
2019-05-02T17:36:05.303Z,8.98
2019-05-02T17:38:36.455Z,8.35
2019-05-02T17:41:08.045Z,8.30
2019-05-02T17:43:42.250Z,8.10
2019-05-02T17:46:18.271Z,9.63
2019-05-02T17:48:52.132Z,10.25
2019-05-02T17:51:37.780Z,11.45
2019-05-02T17:54:08.696Z,12.43
2019-05-02T17:56:41.616Z,11.22
2019-05-02T17:59:12.656Z,11.45
2019-05-02T18:01:43.762Z,11.48
2019-05-02T18:04:16.537Z,11.88
2019-05-02T18:06:52.366Z,12.95
2019-05-02T18:09:21.636Z,13.78
2019-05-02T18:11:52.969Z,12.60
2019-05-02T18:14:24.220Z,14.20
2019-05-02T18:16:55.793Z,14.78
2019-05-02T18:19:27.089Z,22.10
2019-05-02T18:22:02.678Z,17.27
2019-05-02T18:24:32.699Z,17.90
2019-05-02T18:27:04.492Z,15.68
2019-05-02T18:29:36.329Z,15.32
2019-05-02T18:32:08.387Z,14.05
2019-05-02T18:34:41.659Z,14.05
2019-05-02T18:37:12.480Z,13.70
2019-05-02T18:39:49.755Z,14.53
2019-05-02T18:42:21.957Z,15.13
2019-05-02T18:44:53.051Z,14.33
2019-05-02T18:47:24.626Z,14.07
2019-05-02T18:50:04.346Z,15.78
2019-05-02T18:52:36.437Z,15.35
2019-05-02T18:55:01.945Z,13.62
2019-05-02T18:57:33.228Z,14.43
2019-05-02T19:00:06.835Z,17.07
2019-05-02T19:02:38.271Z,20.02
2019-05-02T19:05:13.431Z,16.97
2019-05-02T19:07:42.817Z,19.25
2019-05-02T19:10:15.208Z,20.35
2019-05-02T19:12:46.397Z,18.42
2019-05-02T19:15:22.561Z,15.63
2019-05-02T19:17:53.626Z,20.57
2019-05-02T19:20:32.554Z,17.25
2019-05-02T19:23:03.949Z,14.68
2019-05-02T19:25:35.103Z,15.88
2019-05-02T19:28:08.943Z,15.05
2019-05-02T19:30:42.405Z,14.10
2019-05-02T19:33:13.569Z,16.60
2019-05-02T19:35:46.870Z,14.65
2019-05-02T19:38:29.765Z,14.68
2019-05-02T19:41:05.572Z,13.43
2019-05-02T19:43:34.969Z,15.53
2019-05-02T19:46:06.175Z,13.85
2019-05-02T19:48:40.236Z,15.63
2019-05-02T19:51:18.288Z,17.25
2019-05-02T19:53:43.000Z,17.70
2019-05-02T19:56:14.088Z,14.73
2019-05-02T19:58:46.787Z,14.93
